createdAt,value
2018-05-02T00:00:31.080Z,5.50
2018-05-02T00:02:59.421Z,5.10
2018-05-02T00:05:26.978Z,5.10
2018-05-02T00:07:54.564Z,5.20
2018-05-02T00:10:22.899Z,5.50
2018-05-02T00:12:50.451Z,5.53
2018-05-02T00:15:18.023Z,5.23
2018-05-02T00:17:45.584Z,5.23
2018-05-02T00:20:13.308Z,5.37
2018-05-02T00:22:41.609Z,5.60
2018-05-02T00:25:09.196Z,5.50
2018-05-02T00:27:36.741Z,5.83
2018-05-02T00:30:04.287Z,5.50
2018-05-02T00:32:31.877Z,5.30
2018-05-02T00:34:59.603Z,5.10
2018-05-02T00:37:27.177Z,5.13
2018-05-02T00:39:54.717Z,5.10
2018-05-02T00:42:22.275Z,5.10
2018-05-02T00:44:49.839Z,5.53
2018-05-02T00:47:17.451Z,5.07
2018-05-02T00:49:44.984Z,5.30
2018-05-02T00:52:12.540Z,5.23
2018-05-02T00:54:40.112Z,5.07
2018-05-02T00:57:07.651Z,5.30
2018-05-02T00:59:35.204Z,4.67
2018-05-02T01:02:02.959Z,5.67
2018-05-02T01:04:30.496Z,5.27
2018-05-02T01:06:58.813Z,5.43
2018-05-02T01:09:26.368Z,5.43
2018-05-02T01:11:53.922Z,5.13
2018-05-02T01:14:21.465Z,6.00
2018-05-02T01:16:49.021Z,6.03
2018-05-02T01:19:17.372Z,6.27
2018-05-02T01:21:44.963Z,6.07
2018-05-02T01:24:12.525Z,6.03
2018-05-02T01:26:40.071Z,5.97
2018-05-02T01:29:08.408Z,6.40
2018-05-02T01:31:35.960Z,5.30
2018-05-02T01:34:03.528Z,5.73
2018-05-02T01:36:31.083Z,6.30
2018-05-02T01:38:58.648Z,6.13
2018-05-02T01:41:26.187Z,6.63
2018-05-02T01:43:53.761Z,6.37
2018-05-02T01:46:21.371Z,6.13
2018-05-02T01:49:01.460Z,7.23
2018-05-02T01:51:29.008Z,5.90
2018-05-02T01:53:56.556Z,7.00
2018-05-02T01:56:24.095Z,7.10
2018-05-02T01:58:52.440Z,6.67
2018-05-02T02:01:19.993Z,6.80
2018-05-02T02:03:47.570Z,6.33
2018-05-02T02:06:15.124Z,6.73
2018-05-02T02:08:42.676Z,7.00
2018-05-02T02:11:10.227Z,6.93
2018-05-02T02:13:37.848Z,6.93
2018-05-02T02:16:05.405Z,6.87
2018-05-02T02:18:33.715Z,6.47
2018-05-02T02:21:01.275Z,6.20
2018-05-02T02:23:28.824Z,7.00
2018-05-02T02:25:56.403Z,7.20
2018-05-02T02:28:24.015Z,7.17
2018-05-02T02:30:52.362Z,6.47
2018-05-02T02:35:53.865Z,6.97
2018-05-02T02:38:22.206Z,6.87
2018-05-02T02:40:49.749Z,7.50
2018-05-02T02:43:17.303Z,6.47
2018-05-02T02:45:44.988Z,6.90
2018-05-02T02:48:12.539Z,7.37
2018-05-02T02:50:40.117Z,7.20
2018-05-02T02:53:07.696Z,7.53
2018-05-02T02:55:36.040Z,6.90
2018-05-02T02:58:03.611Z,8.13
2018-05-02T03:00:31.176Z,6.80
2018-05-02T03:02:59.516Z,7.27
2018-05-02T03:05:27.076Z,7.77
2018-05-02T03:07:54.658Z,7.77
2018-05-02T03:10:22.196Z,6.63
2018-05-02T03:12:49.748Z,7.47
2018-05-02T03:15:17.327Z,7.23
2018-05-02T03:17:44.924Z,7.23
2018-05-02T03:20:12.470Z,7.57
2018-05-02T03:22:41.527Z,6.80
2018-05-02T03:25:09.086Z,6.80
2018-05-02T03:27:36.641Z,6.90
2018-05-02T03:30:04.196Z,7.30
2018-05-02T03:32:31.760Z,7.17
2018-05-02T03:34:59.314Z,7.30
2018-05-02T03:37:26.913Z,7.50
2018-05-02T03:39:54.488Z,8.50
2018-05-02T03:42:22.040Z,8.20
2018-05-02T03:44:49.612Z,7.67
2018-05-02T03:47:17.195Z,7.70
2018-05-02T03:49:45.585Z,7.10
2018-05-02T03:52:13.092Z,7.63
2018-05-02T03:54:40.761Z,8.10
2018-05-02T03:57:08.308Z,8.07
2018-05-02T03:59:47.822Z,6.80
2018-05-02T04:02:27.227Z,7.47
2018-05-02T04:05:07.489Z,7.67
2018-05-02T04:07:36.049Z,7.63
2018-05-02T04:10:03.612Z,7.67
2018-05-02T04:12:31.166Z,7.90
2018-05-02T04:14:58.851Z,8.63
2018-05-02T04:17:26.488Z,7.83
2018-05-02T04:19:54.053Z,7.77
2018-05-02T04:22:21.623Z,8.10
2018-05-02T04:24:49.182Z,8.33
2018-05-02T04:27:16.738Z,8.40
2018-05-02T04:29:44.451Z,7.90
2018-05-02T04:32:12.020Z,7.93
2018-05-02T04:34:39.567Z,8.87
2018-05-02T04:37:07.135Z,8.40
2018-05-02T04:39:34.763Z,7.93
2018-05-02T04:42:03.100Z,7.50
2018-05-02T04:44:30.647Z,8.97
2018-05-02T04:46:58.264Z,7.80
2018-05-02T04:49:26.588Z,7.67
2018-05-02T04:51:54.144Z,7.40
2018-05-02T04:54:21.761Z,6.77
2018-05-02T04:56:50.068Z,7.63
2018-05-02T04:59:17.817Z,7.97
2018-05-02T05:01:45.358Z,6.87
2018-05-02T05:04:13.700Z,7.50
2018-05-02T05:06:41.305Z,6.83
2018-05-02T05:09:08.795Z,6.33
2018-05-02T05:11:36.351Z,6.77
2018-05-02T05:14:03.910Z,6.50
2018-05-02T05:16:31.459Z,6.17
2018-05-02T05:18:59.031Z,6.20
2018-05-02T05:21:26.569Z,6.10
2018-05-02T05:23:54.124Z,6.13
2018-05-02T05:26:21.680Z,5.87
2018-05-02T05:28:49.360Z,6.50
2018-05-02T05:31:16.899Z,6.23
2018-05-02T05:33:45.218Z,5.53
2018-05-02T05:36:12.784Z,5.57
2018-05-02T05:38:40.424Z,5.77
2018-05-02T05:41:08.051Z,5.83
2018-05-02T05:43:36.395Z,5.70
2018-05-02T05:46:03.931Z,5.87
2018-05-02T05:48:31.488Z,5.03
2018-05-02T05:50:59.048Z,6.20
2018-05-02T05:53:26.585Z,5.87
2018-05-02T05:55:54.263Z,5.20
2018-05-02T05:58:21.815Z,5.10
2018-05-02T06:00:49.450Z,5.20
2018-05-02T06:03:16.943Z,4.53
2018-05-02T06:05:44.516Z,4.97
2018-05-02T06:08:12.079Z,4.43
2018-05-02T06:10:39.724Z,5.40
2018-05-02T06:13:07.276Z,4.13
2018-05-02T06:15:34.844Z,4.20
2018-05-02T06:18:02.417Z,3.60
2018-05-02T06:20:29.967Z,4.17
2018-05-02T06:22:57.549Z,3.60
2018-05-02T06:25:25.160Z,3.90
2018-05-02T06:27:53.500Z,4.50
2018-05-02T06:30:21.055Z,4.80
2018-05-02T06:32:48.619Z,4.47
2018-05-02T06:35:16.183Z,5.37
2018-05-02T06:37:43.870Z,4.60
2018-05-02T06:40:11.296Z,5.20
2018-05-02T06:42:38.856Z,5.20
2018-05-02T06:45:06.434Z,5.20
2018-05-02T06:47:33.996Z,5.90
2018-05-02T06:50:01.657Z,5.57
2018-05-02T06:52:30.020Z,5.40
2018-05-02T06:54:57.568Z,6.00
2018-05-02T06:57:25.132Z,5.97
2018-05-02T06:59:52.688Z,5.60
2018-05-02T07:02:20.277Z,5.97
2018-05-02T07:04:47.853Z,5.60
2018-05-02T07:07:16.263Z,6.07
2018-05-02T07:09:43.734Z,5.63
2018-05-02T07:12:11.281Z,5.83
2018-05-02T07:14:38.842Z,5.33
2018-05-02T07:17:06.385Z,5.60
2018-05-02T07:19:33.931Z,5.77
2018-05-02T07:22:02.257Z,5.70
2018-05-02T07:24:29.860Z,6.00
2018-05-02T07:26:58.191Z,5.87
2018-05-02T07:29:25.754Z,5.67
2018-05-02T07:31:53.292Z,5.70
2018-05-02T07:34:20.860Z,5.60
2018-05-02T07:36:48.410Z,5.77
2018-05-02T07:39:16.075Z,5.07
2018-05-02T07:41:43.611Z,5.57
2018-05-02T07:44:11.183Z,5.13
2018-05-02T07:46:38.754Z,5.30
2018-05-02T07:49:06.345Z,5.07
2018-05-02T07:51:33.884Z,4.90
2018-05-02T07:54:01.636Z,5.10
2018-05-02T07:56:29.221Z,5.07
2018-05-02T07:58:57.514Z,5.10
2018-05-02T08:01:25.227Z,5.10
2018-05-02T08:03:52.800Z,5.40
2018-05-02T08:06:20.376Z,5.00
2018-05-02T08:08:47.956Z,5.50
2018-05-02T08:11:15.552Z,5.23
2018-05-02T08:13:43.856Z,4.80
2018-05-02T08:16:11.429Z,5.13
2018-05-02T08:18:39.059Z,4.93
2018-05-02T08:21:06.633Z,5.07
2018-05-02T08:23:34.173Z,4.77
2018-05-02T08:26:02.493Z,5.13
2018-05-02T08:28:30.035Z,4.23
2018-05-02T08:30:57.615Z,4.70
2018-05-02T08:33:25.182Z,5.50
2018-05-02T08:35:52.767Z,4.83
2018-05-02T08:38:20.315Z,5.00
2018-05-02T08:40:47.890Z,5.07
2018-05-02T08:43:15.447Z,4.50
2018-05-02T08:45:43.012Z,4.63
2018-05-02T08:48:10.580Z,4.37
2018-05-02T08:50:39.042Z,4.50
2018-05-02T08:53:06.599Z,3.93
2018-05-02T08:55:34.161Z,4.17
2018-05-02T08:58:01.745Z,4.37
2018-05-02T09:00:30.143Z,3.70
2018-05-02T09:02:57.736Z,3.67
2018-05-02T09:05:25.302Z,3.93
2018-05-02T09:07:52.871Z,4.13
2018-05-02T09:10:20.428Z,4.00
2018-05-02T09:12:47.975Z,3.40
2018-05-02T09:15:15.538Z,3.17
2018-05-02T09:17:43.104Z,3.03
2018-05-02T09:20:10.664Z,3.20
2018-05-02T09:22:38.221Z,2.73
2018-05-02T09:25:05.791Z,2.67
2018-05-02T09:27:33.381Z,2.80
2018-05-02T09:30:00.973Z,3.03
2018-05-02T09:32:28.523Z,3.03
2018-05-02T09:34:56.110Z,2.93
2018-05-02T09:37:23.664Z,2.87
2018-05-02T09:39:51.268Z,2.90
2018-05-02T09:42:18.824Z,2.50
2018-05-02T09:44:46.417Z,2.77
2018-05-02T09:47:14.745Z,2.93
2018-05-02T09:49:42.391Z,3.10
2018-05-02T09:52:10.025Z,2.70
2018-05-02T09:54:37.540Z,2.70
2018-05-02T09:57:05.231Z,3.00
2018-05-02T09:59:33.703Z,3.10
2018-05-02T10:02:02.033Z,2.80
2018-05-02T10:04:29.616Z,3.00
2018-05-02T10:06:57.200Z,3.10
2018-05-02T10:09:24.755Z,2.70
2018-05-02T10:11:52.339Z,2.57
2018-05-02T10:14:20.680Z,2.90
2018-05-02T10:16:48.215Z,2.70
2018-05-02T10:19:15.943Z,2.77
2018-05-02T10:21:43.507Z,2.93
2018-05-02T10:24:11.182Z,2.83
2018-05-02T10:26:38.719Z,2.93
2018-05-02T10:29:06.279Z,2.87
2018-05-02T10:31:33.867Z,2.60
2018-05-02T10:34:01.435Z,2.70
2018-05-02T10:36:29.019Z,3.17
2018-05-02T10:38:56.570Z,2.67
2018-05-02T10:41:24.155Z,3.07
2018-05-02T10:43:51.719Z,2.90
2018-05-02T10:46:19.295Z,2.90
2018-05-02T10:48:47.596Z,2.60
2018-05-02T10:51:15.249Z,3.20
2018-05-02T10:53:42.799Z,2.63
2018-05-02T10:56:10.391Z,2.60
2018-05-02T10:58:37.936Z,2.80
2018-05-02T11:01:05.588Z,3.20
2018-05-02T11:03:33.259Z,2.87
2018-05-02T11:06:00.807Z,3.00
2018-05-02T11:08:28.446Z,2.97
2018-05-02T11:10:55.931Z,2.80
2018-05-02T11:13:23.524Z,2.60
2018-05-02T11:15:51.323Z,2.80
2018-05-02T11:18:18.904Z,2.77
2018-05-02T11:20:47.262Z,2.70
2018-05-02T11:23:14.868Z,3.00
2018-05-02T11:25:42.409Z,2.90
2018-05-02T11:28:10.065Z,2.87
2018-05-02T11:30:38.528Z,3.10
2018-05-02T11:33:06.089Z,3.00
2018-05-02T11:35:34.421Z,2.57
2018-05-02T11:38:01.992Z,2.77
2018-05-02T11:40:29.651Z,2.90
2018-05-02T11:42:57.934Z,3.20
2018-05-02T11:45:25.496Z,2.50
2018-05-02T11:47:53.092Z,2.80
2018-05-02T11:50:21.450Z,2.93
2018-05-02T11:52:48.995Z,2.40
2018-05-02T11:55:16.575Z,2.60
2018-05-02T11:57:44.193Z,2.50
2018-05-02T12:00:12.568Z,2.40
2018-05-02T12:02:40.150Z,2.60
2018-05-02T12:05:07.699Z,2.60
2018-05-02T12:07:35.379Z,2.53
2018-05-02T12:10:02.954Z,2.43
2018-05-02T12:12:30.588Z,3.00
2018-05-02T12:14:58.132Z,2.50
2018-05-02T12:17:25.898Z,2.40
2018-05-02T12:19:53.454Z,2.27
2018-05-02T12:22:21.043Z,2.60
2018-05-02T12:24:48.596Z,2.47
2018-05-02T12:27:16.192Z,2.13
2018-05-02T12:29:43.765Z,2.30
2018-05-02T12:32:12.138Z,2.40
2018-05-02T12:34:39.694Z,2.50
2018-05-02T12:37:08.100Z,2.33
2018-05-02T12:39:35.650Z,2.50
2018-05-02T12:42:03.981Z,2.10
2018-05-02T12:44:31.565Z,2.10
2018-05-02T12:46:59.313Z,2.37
2018-05-02T12:49:26.885Z,2.70
2018-05-02T12:51:54.478Z,2.20
2018-05-02T12:54:22.061Z,1.90
2018-05-02T12:56:49.623Z,1.93
2018-05-02T12:59:17.180Z,2.40
2018-05-02T13:01:44.766Z,2.50
2018-05-02T13:04:12.336Z,2.37
2018-05-02T13:06:39.933Z,2.10
2018-05-02T13:09:08.267Z,1.83
2018-05-02T13:11:35.815Z,1.87
2018-05-02T13:14:03.381Z,2.10
2018-05-02T13:16:30.971Z,1.80
2018-05-02T13:18:58.553Z,1.70
2018-05-02T13:21:26.888Z,1.93
2018-05-02T13:23:54.475Z,2.00
2018-05-02T13:26:22.055Z,2.00
2018-05-02T13:28:50.392Z,2.33
2018-05-02T13:31:17.963Z,2.20
2018-05-02T13:33:45.576Z,2.00
2018-05-02T13:36:13.205Z,2.00
2018-05-02T13:38:41.546Z,1.90
2018-05-02T13:41:09.100Z,1.70
2018-05-02T13:43:36.691Z,2.17
2018-05-02T13:46:04.263Z,1.70
2018-05-02T13:48:32.596Z,3.67
2018-05-02T13:51:00.194Z,2.90
2018-05-02T13:53:27.740Z,3.00
2018-05-02T13:55:55.313Z,12.93
2018-05-02T13:58:23.739Z,5.10
2018-05-02T14:00:51.349Z,1.80
2018-05-02T14:03:18.896Z,1.80
2018-05-02T14:05:46.604Z,2.13
2018-05-02T14:08:14.234Z,1.83
2018-05-02T14:10:41.844Z,1.90
2018-05-02T14:13:09.423Z,1.80
2018-05-02T14:15:37.034Z,1.77
2018-05-02T14:18:05.452Z,1.80
2018-05-02T14:20:33.007Z,1.87
2018-05-02T14:23:00.760Z,2.80
2018-05-02T14:25:28.333Z,2.20
2018-05-02T14:28:42.443Z,2.57
2018-05-02T14:31:10.822Z,9.77
2018-05-02T14:33:38.353Z,2.37
2018-05-02T14:36:05.948Z,2.30
2018-05-02T14:38:34.270Z,2.10
2018-05-02T14:41:01.840Z,2.00
2018-05-02T14:43:29.410Z,2.00
2018-05-02T14:45:57.092Z,1.97
2018-05-02T14:48:24.680Z,2.10
2018-05-02T14:50:52.253Z,2.27
2018-05-02T14:53:19.832Z,6.90
2018-05-02T14:55:47.391Z,3.43
2018-05-02T14:58:14.977Z,2.07
2018-05-02T15:00:42.542Z,2.57
2018-05-02T15:03:10.140Z,2.00
2018-05-02T15:05:38.483Z,2.67
2018-05-02T15:08:06.021Z,2.10
2018-05-02T15:10:33.659Z,1.80
2018-05-02T15:13:01.240Z,1.90
2018-05-02T15:15:28.792Z,2.20
2018-05-02T15:17:56.443Z,1.97
2018-05-02T15:20:23.975Z,2.10
2018-05-02T15:22:52.290Z,2.00
2018-05-02T15:25:19.857Z,2.00
2018-05-02T15:27:47.415Z,2.03
2018-05-02T15:30:14.980Z,2.20
2018-05-02T15:32:42.645Z,1.90
2018-05-02T15:35:10.932Z,2.13
2018-05-02T15:37:38.567Z,1.83
2018-05-02T15:40:06.135Z,2.10
2018-05-02T15:42:33.719Z,2.30
2018-05-02T15:45:01.337Z,2.10
2018-05-02T15:47:28.976Z,2.07
2018-05-02T15:49:57.295Z,2.00
2018-05-02T15:52:24.856Z,1.80
2018-05-02T15:54:52.432Z,2.10
2018-05-02T15:57:19.976Z,2.27
2018-05-02T15:59:47.540Z,1.83
2018-05-02T16:02:15.177Z,2.20
2018-05-02T16:04:42.729Z,2.10
2018-05-02T16:07:10.299Z,2.20
2018-05-02T16:09:37.843Z,1.97
2018-05-02T16:12:05.544Z,2.37
2018-05-02T16:14:33.142Z,1.73
2018-05-02T16:17:00.704Z,2.13
2018-05-02T16:19:29.051Z,2.20
2018-05-02T16:21:56.756Z,2.20
2018-05-02T16:24:25.092Z,2.23
2018-05-02T16:26:52.663Z,2.13
2018-05-02T16:29:20.243Z,2.40
2018-05-02T16:31:48.592Z,2.30
2018-05-02T16:34:16.164Z,2.00
2018-05-02T16:36:43.721Z,2.03
2018-05-02T16:39:11.312Z,2.10
2018-05-02T16:41:39.661Z,2.10
2018-05-02T16:44:07.232Z,2.10
2018-05-02T16:46:34.836Z,2.00
2018-05-02T16:49:02.396Z,1.90
2018-05-02T16:51:29.960Z,2.30
2018-05-02T16:53:57.524Z,2.20
2018-05-02T16:56:25.092Z,2.33
2018-05-02T16:58:52.660Z,2.30
2018-05-02T17:01:20.223Z,2.33
2018-05-02T17:03:47.812Z,6.27
2018-05-02T17:06:15.364Z,2.73
2018-05-02T17:08:42.935Z,6.73
2018-05-02T17:11:10.557Z,2.20
2018-05-02T17:13:38.838Z,2.30
2018-05-02T17:16:06.410Z,2.30
2018-05-02T17:18:33.956Z,2.17
2018-05-02T17:21:01.672Z,2.17
2018-05-02T17:23:30.024Z,2.20
2018-05-02T17:25:57.596Z,1.90
2018-05-02T17:28:25.179Z,2.37
2018-05-02T17:30:53.512Z,2.33
2018-05-02T17:33:21.063Z,2.33
2018-05-02T17:35:48.637Z,2.77
2018-05-02T17:38:16.208Z,10.33
2018-05-02T17:40:43.910Z,3.80
2018-05-02T17:43:11.472Z,5.17
2018-05-02T17:45:39.068Z,2.73
2018-05-02T17:48:06.897Z,2.20
2018-05-02T17:50:34.496Z,2.30
2018-05-02T17:53:02.065Z,2.10
2018-05-02T17:55:29.700Z,2.27
2018-05-02T17:57:57.287Z,2.00
2018-05-02T18:00:24.876Z,2.20
2018-05-02T18:02:53.219Z,2.50
2018-05-02T18:05:20.807Z,2.70
2018-05-02T18:07:48.351Z,7.77
2018-05-02T18:10:16.100Z,3.10
2018-05-02T18:12:43.658Z,4.73
2018-05-02T18:15:11.251Z,2.60
2018-05-02T18:17:39.560Z,2.50
2018-05-02T18:20:07.132Z,2.50
2018-05-02T18:22:34.865Z,2.40
2018-05-02T18:25:03.187Z,3.23
2018-05-02T18:27:30.773Z,14.83
2018-05-02T18:29:58.611Z,2.57
2018-05-02T18:32:26.189Z,2.40
2018-05-02T18:34:53.765Z,2.27
2018-05-02T18:37:21.369Z,2.60
2018-05-02T18:39:49.001Z,2.40
2018-05-02T18:42:16.593Z,2.60
2018-05-02T18:44:44.179Z,2.40
2018-05-02T18:47:11.870Z,2.40
2018-05-02T18:49:40.124Z,2.70
2018-05-02T18:52:07.706Z,2.70
2018-05-02T18:54:35.496Z,2.23
2018-05-02T18:57:03.860Z,2.33
2018-05-02T18:59:31.433Z,2.43
2018-05-02T19:01:59.121Z,2.90
2018-05-02T19:04:26.731Z,2.30
2018-05-02T19:06:54.308Z,2.60
2018-05-02T19:09:21.905Z,2.90
2018-05-02T19:11:49.491Z,3.00
2018-05-02T19:14:17.105Z,2.63
2018-05-02T19:16:45.425Z,2.90
2018-05-02T19:19:18.552Z,2.80
2018-05-02T19:21:46.118Z,3.17
2018-05-02T19:24:13.740Z,2.93
2018-05-02T19:26:41.385Z,2.40
2018-05-02T19:29:08.964Z,2.80
2018-05-02T19:31:42.378Z,2.40
2018-05-02T19:34:10.007Z,3.10
2018-05-02T19:36:37.590Z,3.10
2018-05-02T19:39:06.056Z,2.63
2018-05-02T19:41:39.345Z,3.00
2018-05-02T19:44:06.982Z,2.63
2018-05-02T19:46:34.568Z,2.83
2018-05-02T19:49:02.127Z,2.90
2018-05-02T19:51:35.254Z,3.03
2018-05-02T19:54:02.841Z,3.90
2018-05-02T19:56:31.198Z,2.67
2018-05-02T19:58:58.771Z,2.70
2018-05-02T20:01:31.969Z,2.67
2018-05-02T20:04:00.332Z,2.80
2018-05-02T20:06:27.990Z,2.80
2018-05-02T20:09:01.072Z,3.03
2018-05-02T20:11:34.294Z,2.80
2018-05-02T20:14:02.626Z,3.10
2018-05-02T20:16:30.224Z,3.07
2018-05-02T20:18:58.577Z,3.00
2018-05-02T20:21:26.157Z,3.03
2018-05-02T20:23:53.757Z,3.03
2018-05-02T20:26:21.347Z,3.37
2018-05-02T20:28:48.912Z,3.30
2018-05-02T20:31:16.494Z,3.00
2018-05-02T20:33:44.059Z,3.10
2018-05-02T20:36:11.660Z,3.20
2018-05-02T20:38:39.272Z,3.07
2018-05-02T20:41:06.875Z,3.00
2018-05-02T20:43:34.498Z,2.80
2018-05-02T20:46:02.086Z,2.90
2018-05-02T20:48:30.446Z,2.53
2018-05-02T20:50:58.028Z,2.87
2018-05-02T20:53:25.684Z,2.70
2018-05-02T20:55:54.029Z,2.80
2018-05-02T20:58:21.589Z,3.00
2018-05-02T21:00:49.170Z,2.63
2018-05-02T21:03:16.837Z,2.60
2018-05-02T21:05:45.188Z,3.10
2018-05-02T21:08:12.749Z,2.93
2018-05-02T21:10:40.322Z,3.20
2018-05-02T21:13:07.876Z,3.00
2018-05-02T21:15:35.470Z,3.20
2018-05-02T21:18:03.811Z,3.17
2018-05-02T21:20:31.558Z,3.27
2018-05-02T21:22:59.171Z,3.07
2018-05-02T21:25:27.577Z,3.53
2018-05-02T21:27:55.160Z,3.00
2018-05-02T21:30:22.750Z,3.00
2018-05-02T21:32:50.485Z,3.07
2018-05-02T21:35:18.039Z,2.70
2018-05-02T21:37:45.609Z,3.50
2018-05-02T21:40:13.171Z,3.00
2018-05-02T21:42:40.740Z,3.37
2018-05-02T21:45:08.311Z,3.50
2018-05-02T21:47:35.879Z,3.30
2018-05-02T21:50:04.331Z,3.20
2018-05-02T21:52:31.877Z,3.50
2018-05-02T21:54:59.469Z,3.00
2018-05-02T21:57:27.028Z,3.40
2018-05-02T21:59:54.695Z,3.03
2018-05-02T22:02:23.000Z,3.30
2018-05-02T22:04:51.340Z,3.10
2018-05-02T22:07:18.920Z,3.10
2018-05-02T22:09:47.296Z,3.77
2018-05-02T22:12:15.625Z,3.13
2018-05-02T22:14:43.391Z,3.20
2018-05-02T22:17:10.960Z,3.27
2018-05-02T22:19:38.528Z,3.20
2018-05-02T22:22:06.142Z,3.30
2018-05-02T22:24:34.477Z,3.60
2018-05-02T22:27:02.063Z,3.90
2018-05-02T22:29:30.387Z,4.07
2018-05-02T22:31:57.968Z,3.20
2018-05-02T22:34:25.521Z,3.00
2018-05-02T22:36:53.101Z,3.00
2018-05-02T22:39:20.680Z,3.50
2018-05-02T22:41:49.020Z,3.60
2018-05-02T22:44:16.598Z,3.20
2018-05-02T22:46:44.188Z,3.43
2018-05-02T22:49:12.555Z,3.10
2018-05-02T22:51:40.152Z,3.50
2018-05-02T22:54:07.724Z,3.60
2018-05-02T22:56:35.310Z,3.37
2018-05-02T22:59:02.920Z,3.80
2018-05-02T23:01:30.487Z,3.83
2018-05-02T23:03:58.050Z,3.83
2018-05-02T23:06:25.613Z,3.60
2018-05-02T23:08:53.180Z,3.53
2018-05-02T23:11:20.728Z,3.90
2018-05-02T23:13:48.304Z,3.90
2018-05-02T23:16:15.868Z,3.50
2018-05-02T23:18:43.438Z,3.60
2018-05-02T23:21:11.015Z,3.83
2018-05-02T23:23:38.613Z,3.67
2018-05-02T23:26:06.929Z,3.63
2018-05-02T23:28:34.615Z,4.00
2018-05-02T23:31:02.239Z,3.70
2018-05-02T23:33:29.792Z,3.53
2018-05-02T23:35:57.380Z,3.80
2018-05-02T23:38:24.941Z,4.30
2018-05-02T23:40:52.517Z,4.17
2018-05-02T23:43:20.081Z,4.20
2018-05-02T23:45:47.673Z,3.73
2018-05-02T23:48:15.992Z,4.30
2018-05-02T23:50:43.664Z,3.93
2018-05-02T23:53:11.215Z,4.10
2018-05-02T23:55:38.787Z,3.90
2018-05-02T23:58:06.379Z,3.93
